Terminal Aerodrome Forecast
Issued by NWS Greer, SC

Home | Current Version | Previous Version | Text Only | Print | Product List | Glossary On
Versions: 1 2 3 4 5 6 7 8 9 10 11 12 13 14
000
FTUS42 KGSP 302339
TAFAVL
TAF
KAVL 302339Z 0100/0124 14006KT P6SM VCSH BKN040
     FM010300 14005KT P6SM -SHRA VCTS OVC030CB
     FM010500 15006KT 4SM -SHRA BR OVC015
      TEMPO 0105/0109 2SM -SHRA BR OVC007
     FM011200 17004KT 3SM BR OVC015 PROB30 0112/0115 2SM -TSRA BR
      OVC007CB
     FM011500 18006KT P6SM -SHRA VCTS BKN035CB=

USA.gov is the U.S. government's official web portal to all federal, state and local government web resources and services.